Time;durP1;ratioP1;P1;durP2;ratioP2;P2;SDS_P1;SDS_P2;PMS_P1;PMS_P2;Temp;Humidity;BMP_temperature;BMP_pressure;BME280_temperature;BME280_humidity;BME280_pressure;Samples;Min_cycle;Max_cycle;Signal;HPM_P1;HPM_P2
2022/02/17 00:01:49;;;;;;;22.17;4.23;;;;;;;-145.14;100.00;70583.66;5000023;28;20275;-72
2022/02/17 00:04:14;;;;;;;13.67;3.47;;;;;;;-145.14;100.00;70583.66;5001347;28;20185;-73
2022/02/17 00:06:39;;;;;;;23.00;3.77;;;;;;;-145.14;100.00;70583.66;5002456;28;20193;-72
2022/02/17 00:09:05;;;;;;;15.60;4.00;;;;;;;-145.14;100.00;70583.66;4999222;28;20196;-73
2022/02/17 00:11:30;;;;;;;15.23;3.87;;;;;;;-145.14;100.00;70583.66;5003326;28;20224;-73
2022/02/17 00:13:55;;;;;;;14.93;3.83;;;;;;;-145.14;100.00;70583.66;4999014;28;20217;-74
2022/02/17 00:16:21;;;;;;;15.07;3.67;;;;;;;-145.14;100.00;70583.66;5002279;28;20285;-72
2022/02/17 00:18:47;;;;;;;14.93;3.93;;;;;;;-145.14;100.00;70583.66;5000588;28;20182;-72
2022/02/17 00:21:12;;;;;;;22.17;4.30;;;;;;;-145.14;100.00;70583.66;4998748;28;20205;-72
2022/02/17 00:23:38;;;;;;;15.10;4.73;;;;;;;-145.14;100.00;70583.66;4997198;28;20259;-73
2022/02/17 00:26:03;;;;;;;22.77;4.17;;;;;;;-145.14;100.00;70583.66;4998491;28;20235;-73
2022/02/17 00:28:29;;;;;;;16.67;4.00;;;;;;;-145.14;100.00;70583.66;5001420;28;20181;-73
2022/02/17 00:30:54;;;;;;;17.27;3.97;;;;;;;-145.14;100.00;70583.66;4995759;28;20323;-72
2022/02/17 00:33:20;;;;;;;13.50;4.13;;;;;;;-145.14;100.00;70583.66;5001760;28;20352;-73
2022/02/17 00:35:46;;;;;;;20.20;4.00;;;;;;;-145.14;100.00;70583.66;4996424;28;20189;-72
2022/02/17 00:38:11;;;;;;;16.03;3.93;;;;;;;-145.14;100.00;70583.66;4999764;28;20454;-72
2022/02/17 00:40:37;;;;;;;17.60;4.77;;;;;;;-145.14;100.00;70583.66;4998727;28;20185;-72
2022/02/17 00:43:03;;;;;;;31.90;5.30;;;;;;;-145.14;100.00;70583.66;4999418;28;20205;-73
2022/02/17 00:45:28;;;;;;;15.53;4.13;;;;;;;-145.14;100.00;70583.66;4997936;28;20188;-73
2022/02/17 00:47:54;;;;;;;21.50;5.40;;;;;;;-145.14;100.00;70583.66;4997120;28;20216;-72
2022/02/17 00:50:19;;;;;;;27.10;4.60;;;;;;;-145.14;100.00;70583.66;5000172;28;20225;-72
2022/02/17 00:52:45;;;;;;;17.53;3.83;;;;;;;-145.14;100.00;70583.66;5001599;28;20209;-72
2022/02/17 00:55:10;;;;;;;25.27;5.87;;;;;;;-145.14;100.00;70583.66;4999213;28;20193;-71
2022/02/17 00:57:36;;;;;;;21.07;5.40;;;;;;;-145.14;100.00;70583.66;5000135;28;20185;-72
2022/02/17 01:00:04;;;;;;;26.33;5.27;;;;;;;-145.14;100.00;70583.66;4998710;28;20919;-73
2022/02/17 01:02:56;;;;;;;15.33;3.00;;;;;;;-145.14;100.00;70583.66;5001202;28;20213;-71
2022/02/17 01:06:20;;;;;;;21.37;3.10;;;;;;;-145.14;100.00;70583.66;4994947;28;20870;-71
2022/02/17 01:08:57;;;;;;;14.83;2.83;;;;;;;-145.14;100.00;70583.66;5000983;28;20538;-69
2022/02/17 01:12:21;;;;;;;17.77;3.70;;;;;;;-145.14;100.00;70583.66;4997314;28;20471;-71
2022/02/17 01:15:44;;;;;;;21.63;3.87;;;;;;;-145.14;100.00;70583.66;4996835;28;20519;-70
2022/02/17 01:19:09;;;;;;;28.20;5.07;;;;;;;-145.14;100.00;70583.66;5000862;28;20452;-70
2022/02/17 01:22:32;;;;;;;18.10;4.43;;;;;;;-145.14;100.00;70583.66;5001955;28;20498;-71
2022/02/17 01:25:57;;;;;;;25.97;4.97;;;;;;;-145.14;100.00;70583.66;5001841;28;20440;-68
2022/02/17 01:29:21;;;;;;;17.43;4.40;;;;;;;-145.14;100.00;70583.66;5002939;28;20436;-70
2022/02/17 01:32:45;;;;;;;17.40;4.33;;;;;;;-145.14;100.00;70583.66;5004652;28;20558;-71
2022/02/17 01:36:09;;;;;;;24.40;5.20;;;;;;;-145.14;100.00;70583.66;4999773;28;20628;-72
2022/02/17 01:39:37;;;;;;;19.47;4.43;;;;;;;-145.14;100.00;70583.66;5001773;28;20448;-71
2022/02/17 01:43:04;;;;;;;16.20;4.50;;;;;;;-145.14;100.00;70583.66;4992193;28;20490;-70
2022/02/17 01:46:33;;;;;;;20.40;4.47;;;;;;;-145.14;100.00;70583.66;4995160;28;20475;-71
2022/02/17 01:49:56;;;;;;;18.10;5.63;;;;;;;-145.14;100.00;70583.66;4978642;28;20447;-71
2022/02/17 01:53:21;;;;;;;21.43;3.83;;;;;;;-145.14;100.00;70583.66;4992543;28;21173;-69
2022/02/17 01:56:48;;;;;;;17.37;3.63;;;;;;;-145.14;100.00;70583.66;4996291;28;20474;-72
2022/02/17 02:00:12;;;;;;;30.77;5.40;;;;;;;-145.14;100.00;70583.66;5000757;28;20964;-72
2022/02/17 02:03:36;;;;;;;20.50;4.60;;;;;;;-145.14;100.00;70583.66;4998876;28;20517;-71
2022/02/17 02:07:01;;;;;;;17.10;3.97;;;;;;;-145.14;100.00;70583.66;4995007;28;20453;-70
2022/02/17 02:10:25;;;;;;;17.30;3.80;;;;;;;-145.14;100.00;70583.66;4996433;28;20878;-70
2022/02/17 02:13:49;;;;;;;23.43;4.00;;;;;;;-145.14;100.00;70583.66;5000618;28;20530;-73
2022/02/17 02:17:13;;;;;;;26.07;6.50;;;;;;;-145.14;100.00;70583.66;4999389;28;20440;-71
2022/02/17 02:20:42;;;;;;;29.00;4.63;;;;;;;-145.14;100.00;70583.66;5002610;28;20433;-69
2022/02/17 02:24:06;;;;;;;24.03;4.40;;;;;;;-145.14;100.00;70583.66;5001752;28;20553;-70
2022/02/17 02:26:31;;;;;;;24.33;4.80;;;;;;;-145.14;100.00;70583.66;5001215;28;20442;-72
2022/02/17 02:28:59;;;;;;;24.30;4.60;;;;;;;-145.14;100.00;70583.66;5001371;28;20812;-72
2022/02/17 02:31:24;;;;;;;19.53;5.03;;;;;;;-145.14;100.00;70583.66;5000289;28;20307;-70
2022/02/17 02:33:50;;;;;;;33.07;5.17;;;;;;;-145.14;100.00;70583.66;4997111;28;20621;-71
2022/02/17 02:36:15;;;;;;;27.87;4.97;;;;;;;-145.14;100.00;70583.66;4999850;28;20181;-70
2022/02/17 02:38:41;;;;;;;24.53;5.77;;;;;;;-145.14;100.00;70583.66;4998630;28;20189;-72
2022/02/17 02:41:08;;;;;;;27.20;6.20;;;;;;;-145.14;100.00;70583.66;4998415;28;20266;-72
2022/02/17 02:43:33;;;;;;;22.20;4.37;;;;;;;-145.14;100.00;70583.66;4999363;28;20208;-73
2022/02/17 02:45:59;;;;;;;23.70;4.97;;;;;;;-145.14;100.00;70583.66;4997801;28;20916;-72
2022/02/17 02:48:24;;;;;;;23.90;4.77;;;;;;;-145.14;100.00;70583.66;4992921;28;20222;-72
2022/02/17 02:50:50;;;;;;;27.33;5.60;;;;;;;-145.14;100.00;70583.66;4997333;28;20220;-73
2022/02/17 02:53:16;;;;;;;27.83;5.80;;;;;;;-145.14;100.00;70583.66;5001369;28;20610;-71
2022/02/17 02:55:43;;;;;;;19.90;4.97;;;;;;;-145.14;100.00;70583.66;4999465;28;20658;-73
2022/02/17 02:58:11;;;;;;;23.40;5.30;;;;;;;-145.14;100.00;70583.66;4997359;28;20524;-71
2022/02/17 03:00:36;;;;;;;21.77;4.70;;;;;;;-145.14;100.00;70583.66;5001810;28;20447;-71
2022/02/17 03:03:02;;;;;;;34.63;5.50;;;;;;;-145.14;100.00;70583.66;4997766;28;20471;-72
2022/02/17 03:05:27;;;;;;;24.50;5.40;;;;;;;-145.14;100.00;70583.66;4999501;28;20195;-72
2022/02/17 03:07:54;;;;;;;23.37;5.10;;;;;;;-145.14;100.00;70583.66;5001032;28;20185;-72
2022/02/17 03:10:21;;;;;;;33.90;7.30;;;;;;;-145.14;100.00;70583.66;5006185;28;20280;-73
2022/02/17 03:12:46;;;;;;;27.83;5.43;;;;;;;-145.14;100.00;70583.66;5002493;28;20492;-72
2022/02/17 03:15:12;;;;;;;28.37;5.90;;;;;;;-145.14;100.00;70583.66;5001958;28;20443;-70
2022/02/17 03:17:38;;;;;;;26.80;5.40;;;;;;;-145.14;100.00;70583.66;5004702;28;20184;-72
2022/02/17 03:20:07;;;;;;;25.20;5.97;;;;;;;-145.14;100.00;70583.66;4998707;28;20610;-73
2022/02/17 03:22:34;;;;;;;30.43;5.70;;;;;;;-145.14;100.00;70583.66;5001100;28;20899;-71
2022/02/17 03:25:02;;;;;;;26.93;5.80;;;;;;;-145.14;100.00;70583.66;4998367;28;20474;-72
2022/02/17 03:27:27;;;;;;;29.40;5.20;;;;;;;-145.14;100.00;70583.66;5002363;28;20439;-72
2022/02/17 03:29:52;;;;;;;30.97;6.00;;;;;;;-145.14;100.00;70583.66;5003359;28;20463;-72
2022/02/17 03:32:19;;;;;;;26.97;5.70;;;;;;;-145.14;100.00;70583.66;5001865;28;20212;-72
2022/02/17 03:34:45;;;;;;;28.37;5.33;;;;;;;-145.14;100.00;70583.66;5001447;28;20185;-72
2022/02/17 03:37:10;;;;;;;26.20;5.93;;;;;;;-145.14;100.00;70583.66;4998688;28;20441;-74
2022/02/17 03:39:36;;;;;;;25.23;5.30;;;;;;;-145.14;100.00;70583.66;5000634;28;20697;-71
2022/02/17 03:42:02;;;;;;;24.33;5.33;;;;;;;-145.14;100.00;70583.66;4999851;28;20243;-72
2022/02/17 03:44:27;;;;;;;32.03;5.47;;;;;;;-145.14;100.00;70583.66;4998363;28;20193;-72
2022/02/17 03:46:53;;;;;;;29.97;6.80;;;;;;;-145.14;100.00;70583.66;5002701;28;20448;-72
2022/02/17 03:49:19;;;;;;;25.13;5.53;;;;;;;-145.14;100.00;70583.66;4999837;28;20294;-72
2022/02/17 03:51:44;;;;;;;19.80;5.33;;;;;;;-145.14;100.00;70583.66;5001313;28;21056;-72
2022/02/17 03:54:10;;;;;;;27.33;6.33;;;;;;;-145.14;100.00;70583.66;4997491;28;20212;-72
2022/02/17 03:56:35;;;;;;;28.13;4.93;;;;;;;-145.14;100.00;70583.66;5002632;28;20287;-72
2022/02/17 03:59:01;;;;;;;26.00;6.10;;;;;;;-145.14;100.00;70583.66;4997377;28;20193;-72
2022/02/17 04:01:27;;;;;;;29.10;5.13;;;;;;;-145.14;100.00;70583.66;4999895;28;20795;-72
2022/02/17 04:03:53;;;;;;;23.30;5.10;;;;;;;-145.14;100.00;70583.66;5000020;28;20232;-73
2022/02/17 04:06:19;;;;;;;26.90;5.70;;;;;;;-145.14;100.00;70583.66;4995349;28;20482;-73
2022/02/17 04:08:44;;;;;;;30.30;5.97;;;;;;;-145.14;100.00;70583.66;5000009;28;20280;-71
2022/02/17 04:11:10;;;;;;;24.50;6.40;;;;;;;-145.14;100.00;70583.66;4997223;28;20249;-72
2022/02/17 04:13:35;;;;;;;31.07;5.40;;;;;;;-145.14;100.00;70583.66;4995275;28;20216;-72
2022/02/17 04:16:01;;;;;;;36.63;6.73;;;;;;;-145.14;100.00;70583.66;4997419;28;20637;-72
2022/02/17 04:18:26;;;;;;;31.85;7.05;;;;;;;-145.14;100.00;70583.66;5001924;28;20195;-72
2022/02/17 04:20:52;;;;;;;25.53;5.70;;;;;;;-145.14;100.00;70583.66;5000459;28;20182;-73
2022/02/17 04:23:17;;;;;;;44.07;6.97;;;;;;;-145.14;100.00;70583.66;4999528;28;20223;-73
2022/02/17 04:25:43;;;;;;;26.60;5.80;;;;;;;-145.14;100.00;70583.66;4997468;28;20189;-72
2022/02/17 04:28:11;;;;;;;20.00;5.07;;;;;;;-145.14;100.00;70583.66;5002895;28;20192;-75
2022/02/17 04:30:37;;;;;;;29.20;5.80;;;;;;;-145.14;100.00;70583.66;5002335;28;20217;-73
2022/02/17 04:33:03;;;;;;;26.90;5.43;;;;;;;-145.14;100.00;70583.66;4999813;28;20486;-72
2022/02/17 04:35:29;;;;;;;26.80;5.83;;;;;;;-145.14;100.00;70583.66;4998664;28;20199;-73
2022/02/17 04:37:55;;;;;;;22.77;5.13;;;;;;;-145.14;100.00;70583.66;5001072;28;20809;-73
2022/02/17 04:42:17;;;;;;;25.43;5.67;;;;;;;-145.14;100.00;70583.66;4997377;28;20768;-73
2022/02/17 04:43:06;;;;;;;28.70;5.80;;;;;;;-145.14;100.00;70583.66;4998342;28;20976;-71
2022/02/17 04:45:31;;;;;;;30.40;6.20;;;;;;;-145.14;100.00;70583.66;4998757;28;20448;-73
2022/02/17 04:47:58;;;;;;;27.93;5.67;;;;;;;-145.14;100.00;70583.66;5000438;28;20188;-73
2022/02/17 04:50:24;;;;;;;23.70;4.97;;;;;;;-145.14;100.00;70583.66;5004208;28;20178;-74
2022/02/17 04:52:50;;;;;;;31.10;6.00;;;;;;;-145.14;100.00;70583.66;5003598;28;20482;-74
2022/02/17 04:55:16;;;;;;;24.73;5.43;;;;;;;-145.14;100.00;70583.66;4998362;28;20447;-73
2022/02/17 04:57:41;;;;;;;29.23;5.57;;;;;;;-145.14;100.00;70583.66;5001262;28;20440;-73
2022/02/17 05:00:07;;;;;;;27.47;5.93;;;;;;;-145.14;100.00;70583.66;4997316;28;20352;-73
2022/02/17 05:02:33;;;;;;;32.00;6.67;;;;;;;-145.14;100.00;70583.66;5001085;28;20205;-73
2022/02/17 05:04:59;;;;;;;24.40;5.20;;;;;;;-145.14;100.00;70583.66;5000810;28;20440;-73
2022/02/17 05:07:24;;;;;;;31.40;6.93;;;;;;;-145.14;100.00;70583.66;4999578;28;20251;-72
2022/02/17 05:09:50;;;;;;;33.23;5.60;;;;;;;-145.14;100.00;70583.66;5000904;28;20259;-74
2022/02/17 05:12:15;;;;;;;23.53;5.70;;;;;;;-145.14;100.00;70583.66;4999448;28;20224;-73
2022/02/17 05:14:41;;;;;;;32.03;5.33;;;;;;;-145.14;100.00;70583.66;4996536;28;20189;-75
2022/02/17 05:17:06;;;;;;;29.97;5.70;;;;;;;-145.14;100.00;70583.66;4999197;28;20697;-72
2022/02/17 05:19:32;;;;;;;29.07;6.23;;;;;;;-145.14;100.00;70583.66;4999437;28;20251;-73
2022/02/17 05:22:00;;;;;;;25.00;5.50;;;;;;;-145.14;100.00;70583.66;5001517;28;20201;-73
2022/02/17 05:24:25;;;;;;;23.50;5.40;;;;;;;-145.14;100.00;70583.66;5006541;23;20245;-73
2022/02/17 05:26:51;;;;;;;38.47;5.80;;;;;;;-145.14;100.00;70583.66;4997479;28;21426;-70
2022/02/17 05:29:18;;;;;;;32.80;6.73;;;;;;;-145.14;100.00;70583.66;4996908;28;20193;-72
2022/02/17 05:31:43;;;;;;;27.73;6.43;;;;;;;-145.14;100.00;70583.66;5003152;28;20288;-73
2022/02/17 05:34:09;;;;;;;27.80;6.27;;;;;;;-145.14;100.00;70583.66;4990053;28;21051;-72
2022/02/17 05:36:37;;;;;;;27.50;6.00;;;;;;;-145.14;100.00;70583.66;4983404;28;20239;-73
2022/02/17 05:39:04;;;;;;;34.90;7.00;;;;;;;-145.14;100.00;70583.66;4982363;28;20202;-73
2022/02/17 05:41:30;;;;;;;29.47;5.43;;;;;;;-145.14;100.00;70583.66;4982559;28;20812;-74
2022/02/17 05:43:56;;;;;;;23.00;5.50;;;;;;;-145.14;100.00;70583.66;4979444;28;20500;-74
2022/02/17 05:46:22;;;;;;;30.70;5.37;;;;;;;-145.14;100.00;70583.66;4982055;28;20543;-74
2022/02/17 05:48:47;;;;;;;26.13;5.60;;;;;;;-145.14;100.00;70583.66;4980294;28;20445;-73
2022/02/17 05:51:17;;;;;;;23.60;6.00;;;;;;;-145.14;100.00;70583.66;4981372;28;20221;-74
2022/02/17 05:53:43;;;;;;;26.37;5.27;;;;;;;-145.14;100.00;70583.66;4979716;28;20686;-76
2022/02/17 05:56:09;;;;;;;29.00;5.67;;;;;;;-145.14;100.00;70583.66;4980410;28;20967;-70
2022/02/17 05:58:35;;;;;;;34.47;6.40;;;;;;;-145.14;100.00;70583.66;4979647;28;20456;-74
2022/02/17 06:01:01;;;;;;;27.37;6.10;;;;;;;-145.14;100.00;70583.66;4981388;28;20189;-75
2022/02/17 06:03:27;;;;;;;26.77;5.93;;;;;;;-145.14;100.00;70583.66;4977466;28;20504;-74
2022/02/17 06:05:52;;;;;;;43.20;9.10;;;;;;;-145.14;100.00;70583.66;4982118;28;20531;-75
2022/02/17 06:08:18;;;;;;;25.93;7.43;;;;;;;-145.14;100.00;70583.66;4981671;28;20185;-73
2022/02/17 06:10:43;;;;;;;35.67;6.70;;;;;;;-145.14;100.00;70583.66;4980583;28;20190;-69
2022/02/17 06:13:10;;;;;;;39.67;7.73;;;;;;;-145.14;100.00;70583.66;4980729;28;20205;-70
2022/02/17 06:15:36;;;;;;;31.73;6.00;;;;;;;-145.14;100.00;70583.66;4973048;28;20243;-69
2022/02/17 06:18:04;;;;;;;40.43;6.90;;;;;;;-145.14;100.00;70583.66;4976576;28;20460;-70
2022/02/17 06:20:30;;;;;;;28.07;6.00;;;;;;;-145.14;100.00;70583.66;4977449;28;20224;-74
2022/02/17 06:22:56;;;;;;;25.40;5.63;;;;;;;-145.14;100.00;70583.66;4972272;28;20437;-70
2022/02/17 06:25:22;;;;;;;27.67;6.20;;;;;;;-145.14;100.00;70583.66;4966195;28;21139;-71
2022/02/17 06:27:51;;;;;;;28.37;6.80;;;;;;;-145.14;100.00;70583.66;4990203;28;21005;-70
2022/02/17 06:30:18;;;;;;;32.60;7.87;;;;;;;-145.14;100.00;70583.66;4975226;28;20480;-69
2022/02/17 06:32:49;;;;;;;31.60;7.50;;;;;;;-145.14;100.00;70583.66;4978809;28;20473;-70
2022/02/17 06:35:19;;;;;;;30.37;6.70;;;;;;;-145.14;100.00;70583.66;4993085;28;20499;-69
2022/02/17 06:37:46;;;;;;;34.50;6.63;;;;;;;-145.14;100.00;70583.66;4977608;28;20536;-70
2022/02/17 06:40:12;;;;;;;29.47;6.20;;;;;;;-145.14;100.00;70583.66;4974905;28;20783;-69
2022/02/17 06:42:38;;;;;;;30.83;5.97;;;;;;;-145.14;100.00;70583.66;4976758;28;20444;-69
2022/02/17 06:45:04;;;;;;;28.73;6.50;;;;;;;-145.14;100.00;70583.66;4980379;28;20478;-70
2022/02/17 06:47:29;;;;;;;30.73;6.20;;;;;;;-145.14;100.00;70583.66;4977303;28;20182;-69
2022/02/17 06:49:55;;;;;;;29.13;6.20;;;;;;;-145.14;100.00;70583.66;4983035;28;20456;-70
2022/02/17 06:52:20;;;;;;;34.90;6.10;;;;;;;-145.14;100.00;70583.66;4979503;28;20710;-69
2022/02/17 06:54:46;;;;;;;24.40;4.70;;;;;;;-145.14;100.00;70583.66;4979089;28;20286;-68
2022/02/17 06:57:11;;;;;;;33.93;6.30;;;;;;;-145.14;100.00;70583.66;4979295;28;20446;-69
2022/02/17 06:59:37;;;;;;;30.80;6.50;;;;;;;-145.14;100.00;70583.66;4980278;28;20247;-70
2022/02/17 07:02:03;;;;;;;32.53;5.70;;;;;;;-145.14;100.00;70583.66;4977568;28;20227;-69
2022/02/17 07:04:28;;;;;;;22.63;5.47;;;;;;;-145.14;100.00;70583.66;4981590;28;20217;-68
2022/02/17 07:06:53;;;;;;;27.30;5.73;;;;;;;-145.14;100.00;70583.66;4982745;28;20181;-71
2022/02/17 07:09:19;;;;;;;29.07;6.27;;;;;;;-145.14;100.00;70583.66;4975705;28;20190;-69
2022/02/17 07:11:45;;;;;;;28.20;5.43;;;;;;;-145.14;100.00;70583.66;4978313;28;20353;-68
2022/02/17 07:14:11;;;;;;;23.27;5.10;;;;;;;-145.14;100.00;70583.66;4978697;28;20220;-67
2022/02/17 07:16:39;;;;;;;24.07;5.43;;;;;;;-145.14;100.00;70583.66;4994734;28;20599;-68
2022/02/17 07:19:04;;;;;;;24.50;5.40;;;;;;;-145.14;100.00;70583.66;4981713;28;20448;-72
2022/02/17 07:21:30;;;;;;;28.33;5.97;;;;;;;-145.14;100.00;70583.66;4980920;28;20444;-69
2022/02/17 07:23:55;;;;;;;25.67;5.50;;;;;;;-145.14;100.00;70583.66;4981975;28;20223;-69
2022/02/17 07:26:21;;;;;;;24.67;5.43;;;;;;;-145.14;100.00;70583.66;4979598;28;20189;-68
2022/02/17 07:28:46;;;;;;;32.33;6.13;;;;;;;-145.14;100.00;70583.66;4980430;28;20189;-68
2022/02/17 07:31:13;;;;;;;26.53;5.17;;;;;;;-145.14;100.00;70583.66;4979074;28;20221;-68
2022/02/17 07:33:38;;;;;;;23.47;5.60;;;;;;;-145.14;100.00;70583.66;4978740;28;20311;-69
2022/02/17 07:36:06;;;;;;;21.90;5.30;;;;;;;-145.14;100.00;70583.66;4974155;28;20939;-70
2022/02/17 07:38:31;;;;;;;26.43;5.33;;;;;;;-145.14;100.00;70583.66;4981355;28;20244;-70
2022/02/17 07:40:57;;;;;;;22.10;4.73;;;;;;;-145.14;100.00;70583.66;4976406;28;20440;-69
2022/02/17 07:43:23;;;;;;;26.00;5.47;;;;;;;-145.14;100.00;70583.66;4972819;28;20204;-69
2022/02/17 07:45:50;;;;;;;24.40;4.40;;;;;;;-145.14;100.00;70583.66;4981577;28;20713;-67
2022/02/17 07:48:19;;;;;;;19.90;5.03;;;;;;;-145.14;100.00;70583.66;4980509;28;20176;-68
2022/02/17 07:50:44;;;;;;;26.77;5.17;;;;;;;-145.14;100.00;70583.66;4978569;28;20844;-68
2022/02/17 07:53:09;;;;;;;32.63;6.00;;;;;;;-145.14;100.00;70583.66;4976419;28;20468;-72
2022/02/17 07:55:35;;;;;;;30.70;5.63;;;;;;;-145.14;100.00;70583.66;4979304;28;20198;-70
2022/02/17 07:58:05;;;;;;;32.07;5.47;;;;;;;-145.14;100.00;70583.66;4975105;28;21030;-68
2022/02/17 08:00:31;;;;;;;36.90;6.23;;;;;;;-145.14;100.00;70583.66;4973140;28;20245;-68
2022/02/17 08:02:56;;;;;;;35.70;7.27;;;;;;;-145.14;100.00;70583.66;4976932;28;20444;-69
2022/02/17 08:05:22;;;;;;;22.03;5.30;;;;;;;-145.14;100.00;70583.66;4978247;28;20256;-68
2022/02/17 08:07:47;;;;;;;34.00;6.27;;;;;;;-145.14;100.00;70583.66;4981517;28;21027;-70
2022/02/17 08:10:13;;;;;;;30.10;7.17;;;;;;;-145.14;100.00;70583.66;4981893;28;20291;-70
2022/02/17 08:12:43;;;;;;;32.80;5.70;;;;;;;-145.14;100.00;70583.66;4977930;28;20320;-76
2022/02/17 08:15:09;;;;;;;23.17;5.57;;;;;;;-145.14;100.00;70583.66;4982945;28;20220;-69
2022/02/17 08:17:35;;;;;;;28.70;5.63;;;;;;;-145.14;100.00;70583.66;4974006;28;20493;-69
2022/02/17 08:20:01;;;;;;;26.00;5.50;;;;;;;-145.14;100.00;70583.66;4981579;28;20434;-69
2022/02/17 08:22:27;;;;;;;27.73;5.93;;;;;;;-145.14;100.00;70583.66;4983279;28;20437;-69
2022/02/17 08:24:52;;;;;;;25.57;6.33;;;;;;;-145.14;100.00;70583.66;4980754;28;20303;-70
2022/02/17 08:27:17;;;;;;;24.40;5.90;;;;;;;-145.14;100.00;70583.66;4979344;28;20186;-70
2022/02/17 08:29:43;;;;;;;23.80;5.40;;;;;;;-145.14;100.00;70583.66;4982238;28;20269;-70
2022/02/17 08:32:09;;;;;;;30.77;5.87;;;;;;;-145.14;100.00;70583.66;4980379;28;20329;-70
2022/02/17 08:34:34;;;;;;;28.07;5.90;;;;;;;-145.14;100.00;70583.66;4981149;28;20308;-70
2022/02/17 08:37:01;;;;;;;30.03;5.90;;;;;;;-145.14;100.00;70583.66;4982205;28;20270;-69
2022/02/17 08:39:27;;;;;;;23.07;5.00;;;;;;;-145.14;100.00;70583.66;4981948;28;20252;-70
2022/02/17 08:41:52;;;;;;;36.83;6.00;;;;;;;-145.14;100.00;70583.66;4980319;28;20441;-70
2022/02/17 08:44:18;;;;;;;18.27;4.60;;;;;;;-145.14;100.00;70583.66;4979203;28;20698;-69
2022/02/17 08:46:43;;;;;;;25.43;5.00;;;;;;;-145.14;100.00;70583.66;4980935;28;20563;-69
2022/02/17 08:49:09;;;;;;;27.73;5.70;;;;;;;-145.14;100.00;70583.66;4980191;28;20273;-70
2022/02/17 08:51:37;;;;;;;27.27;5.13;;;;;;;-145.14;100.00;70583.66;4982354;28;20217;-69
2022/02/17 08:54:04;;;;;;;28.70;6.57;;;;;;;-145.14;100.00;70583.66;4979979;28;20224;-71
2022/02/17 08:56:29;;;;;;;27.83;5.20;;;;;;;-145.14;100.00;70583.66;4981417;28;20523;-69
2022/02/17 08:58:57;;;;;;;31.07;5.97;;;;;;;-145.14;100.00;70583.66;4979011;28;20437;-69
2022/02/17 09:01:22;;;;;;;26.07;6.10;;;;;;;-145.14;100.00;70583.66;4986169;28;20429;-69
2022/02/17 09:03:48;;;;;;;22.53;5.30;;;;;;;-145.14;100.00;70583.66;4983002;28;20463;-70
2022/02/17 09:06:14;;;;;;;31.37;5.17;;;;;;;-145.14;100.00;70583.66;4986189;28;20177;-70
2022/02/17 09:08:41;;;;;;;22.13;4.63;;;;;;;-145.14;100.00;70583.66;4982030;28;20269;-71
2022/02/17 09:11:06;;;;;;;21.47;5.43;;;;;;;-145.14;100.00;70583.66;5000172;28;20449;-69
2022/02/17 09:13:32;;;;;;;21.20;5.60;;;;;;;-145.14;100.00;70583.66;4983370;28;20463;-70
2022/02/17 09:15:58;;;;;;;19.80;4.83;;;;;;;-145.14;100.00;70583.66;4980761;28;20559;-70
2022/02/17 09:18:24;;;;;;;23.77;5.33;;;;;;;-145.14;100.00;70583.66;4980084;28;20182;-71
2022/02/17 09:20:50;;;;;;;20.23;5.53;;;;;;;-145.14;100.00;70583.66;4975128;28;21012;-69
2022/02/17 09:23:15;;;;;;;18.83;4.27;;;;;;;-145.14;100.00;70583.66;4979631;28;20444;-70
2022/02/17 09:25:41;;;;;;;27.97;6.10;;;;;;;-145.14;100.00;70583.66;4982397;28;20081;-70
2022/02/17 09:28:07;;;;;;;21.40;5.00;;;;;;;-145.14;100.00;70583.66;4980758;28;20190;-70
2022/02/17 09:30:33;;;;;;;24.73;4.73;;;;;;;-145.14;100.00;70583.66;4980127;28;20247;-70
2022/02/17 09:32:58;;;;;;;24.43;4.43;;;;;;;-145.14;100.00;70583.66;4981968;28;20214;-69
2022/02/17 09:35:24;;;;;;;21.27;4.90;;;;;;;-145.14;100.00;70583.66;4982975;28;20518;-70
2022/02/17 09:37:49;;;;;;;19.30;3.97;;;;;;;-145.14;100.00;70583.66;4984287;28;20566;-72
2022/02/17 09:40:20;;;;;;;24.73;4.97;;;;;;;-145.14;100.00;70583.66;4983889;28;20181;-71
2022/02/17 09:42:48;;;;;;;23.13;4.80;;;;;;;-145.14;100.00;70583.66;4985042;28;20181;-69
2022/02/17 09:45:14;;;;;;;22.93;4.70;;;;;;;-145.14;100.00;70583.66;4984324;28;20539;-71
2022/02/17 09:47:44;;;;;;;19.43;4.53;;;;;;;-145.14;100.00;70583.66;4984223;28;20480;-70
2022/02/17 09:50:12;;;;;;;20.43;4.90;;;;;;;-145.14;100.00;70583.66;4982627;28;21139;-70
2022/02/17 09:52:38;;;;;;;26.67;4.70;;;;;;;-145.14;100.00;70583.66;4975966;28;20627;-70
2022/02/17 09:55:12;;;;;;;21.47;4.83;;;;;;;-145.14;100.00;70583.66;4975646;28;20583;-69
2022/02/17 09:57:41;;;;;;;27.93;6.13;;;;;;;-145.14;100.00;70583.66;4977340;28;20436;-71
2022/02/17 10:00:09;;;;;;;27.77;5.50;;;;;;;-145.14;100.00;70583.66;4976442;28;20478;-71
2022/02/17 10:02:34;;;;;;;30.73;5.07;;;;;;;-145.14;100.00;70583.66;4976248;28;20441;-70
2022/02/17 10:05:04;;;;;;;23.97;5.07;;;;;;;-145.14;100.00;70583.66;4977994;28;21220;-69
2022/02/17 10:07:42;;;;;;;25.47;4.90;;;;;;;-145.14;100.00;70583.66;4973209;28;20190;-70
2022/02/17 10:10:23;;;;;;;22.33;4.23;;;;;;;-145.14;100.00;70583.66;4967476;28;20528;-70
2022/02/17 10:12:58;;;;;;;33.65;6.50;;;;;;;-145.14;100.00;70583.66;4982458;28;20936;-70
2022/02/17 10:15:35;;;;;;;26.30;5.33;;;;;;;-145.14;100.00;70583.66;4967257;28;20464;-68
2022/02/17 10:18:08;;;;;;;26.67;6.07;;;;;;;-145.14;100.00;70583.66;4974910;28;20479;-69
2022/02/17 10:20:52;;;;;;;26.40;5.93;;;;;;;-145.14;100.00;70583.66;4979428;28;20949;-69
2022/02/17 10:23:19;;;;;;;28.13;5.60;;;;;;;-145.14;100.00;70583.66;4975032;28;20527;-70
2022/02/17 10:26:04;;;;;;;22.90;6.07;;;;;;;-145.14;100.00;70583.66;4967262;28;20440;-70
2022/02/17 10:28:34;;;;;;;30.63;5.90;;;;;;;-145.14;100.00;70583.66;4973254;28;20497;-69
2022/02/17 10:31:00;;;;;;;23.63;5.47;;;;;;;-145.14;100.00;70583.66;4972645;28;20445;-68
2022/02/17 10:33:40;;;;;;;28.50;5.20;;;;;;;-145.14;100.00;70583.66;4969617;28;20457;-69
2022/02/17 10:36:05;;;;;;;20.27;4.27;;;;;;;-145.14;100.00;70583.66;4972200;28;20451;-70
2022/02/17 10:38:31;;;;;;;22.17;4.40;;;;;;;-145.14;100.00;70583.66;4977936;28;20961;-71
2022/02/17 10:40:57;;;;;;;23.20;5.73;;;;;;;-145.14;100.00;70583.66;4974993;28;20272;-70
2022/02/17 10:43:28;;;;;;;21.60;4.37;;;;;;;-145.14;100.00;70583.66;4983687;28;20543;-69
2022/02/17 10:45:53;;;;;;;29.10;6.33;;;;;;;-145.14;100.00;70583.66;4977648;28;20441;-71
2022/02/17 10:48:25;;;;;;;30.10;5.67;;;;;;;-145.14;100.00;70583.66;4978347;28;20452;-71
2022/02/17 10:51:08;;;;;;;24.97;5.13;;;;;;;-145.14;100.00;70583.66;4975344;28;20208;-72
2022/02/17 10:53:45;;;;;;;35.13;6.97;;;;;;;-145.14;100.00;70583.66;4974218;28;21218;-69
2022/02/17 10:56:16;;;;;;;23.00;5.30;;;;;;;-145.14;100.00;70583.66;4978809;28;20465;-68
2022/02/17 10:58:46;;;;;;;40.03;6.10;;;;;;;-145.14;100.00;70583.66;4972286;28;20445;-69
2022/02/17 11:01:14;;;;;;;30.93;6.17;;;;;;;-145.14;100.00;70583.66;4974339;28;20432;-70
2022/02/17 11:03:41;;;;;;;21.87;5.40;;;;;;;-145.14;100.00;70583.66;4982506;28;20531;-69
2022/02/17 11:06:09;;;;;;;32.83;5.23;;;;;;;-145.14;100.00;70583.66;4981799;28;20425;-70
2022/02/17 11:08:35;;;;;;;27.83;4.80;;;;;;;-145.14;100.00;70583.66;4984355;28;20540;-70
2022/02/17 11:11:00;;;;;;;29.70;6.60;;;;;;;-145.14;100.00;70583.66;4990562;28;20507;-70
2022/02/17 11:13:27;;;;;;;26.23;5.30;;;;;;;-145.14;100.00;70583.66;4982924;28;21010;-69
2022/02/17 11:15:57;;;;;;;20.67;4.37;;;;;;;-145.14;100.00;70583.66;4980322;28;20613;-69
2022/02/17 11:18:23;;;;;;;22.43;5.10;;;;;;;-145.14;100.00;70583.66;4980779;28;20489;-69
2022/02/17 11:20:51;;;;;;;25.63;4.43;;;;;;;-145.14;100.00;70583.66;4981919;28;20838;-69
2022/02/17 11:23:19;;;;;;;21.13;5.40;;;;;;;-145.14;100.00;70583.66;4973674;28;20487;-70